sensor_id;sensor_type;location;lat;lon;timestamp;temperature;humidity
33803;DHT22;20110;53.120;5.786;2023-03-01T00:02:08;-4.00;99.90
33803;DHT22;20110;53.120;5.786;2023-03-01T00:04:34;-3.90;99.90
33803;DHT22;20110;53.120;5.786;2023-03-01T00:07:01;-3.60;99.90
33803;DHT22;20110;53.120;5.786;2023-03-01T00:09:27;-3.40;99.90
33803;DHT22;20110;53.120;5.786;2023-03-01T00:11:53;-2.90;99.90
33803;DHT22;20110;53.120;5.786;2023-03-01T00:14:18;-3.20;99.90
33803;DHT22;20110;53.120;5.786;2023-03-01T00:16:45;-3.50;99.90
33803;DHT22;20110;53.120;5.786;2023-03-01T00:19:14;-3.50;99.90
33803;DHT22;20110;53.120;5.786;2023-03-01T00:21:42;-3.40;99.90
33803;DHT22;20110;53.120;5.786;2023-03-01T00:24:09;-3.80;99.90
33803;DHT22;20110;53.120;5.786;2023-03-01T00:26:36;-4.00;99.90
33803;DHT22;20110;53.120;5.786;2023-03-01T00:29:02;-4.30;99.90
33803;DHT22;20110;53.120;5.786;2023-03-01T00:31:30;-4.60;99.90
33803;DHT22;20110;53.120;5.786;2023-03-01T00:33:59;-4.80;99.90
33803;DHT22;20110;53.120;5.786;2023-03-01T00:36:30;-4.80;99.90
33803;DHT22;20110;53.120;5.786;2023-03-01T00:38:58;-4.70;99.90
33803;DHT22;20110;53.120;5.786;2023-03-01T00:41:24;-4.70;99.90
33803;DHT22;20110;53.120;5.786;2023-03-01T00:43:52;-4.90;99.90
33803;DHT22;20110;53.120;5.786;2023-03-01T00:46:21;-4.80;99.90
33803;DHT22;20110;53.120;5.786;2023-03-01T00:48:48;-4.10;99.90
33803;DHT22;20110;53.120;5.786;2023-03-01T00:51:20;-3.80;99.90
33803;DHT22;20110;53.120;5.786;2023-03-01T00:53:55;-3.90;99.90
33803;DHT22;20110;53.120;5.786;2023-03-01T00:56:24;-5.10;99.90
33803;DHT22;20110;53.120;5.786;2023-03-01T00:58:50;-5.50;99.90
33803;DHT22;20110;53.120;5.786;2023-03-01T01:01:22;-5.80;99.90
33803;DHT22;20110;53.120;5.786;2023-03-01T01:03:58;-6.00;99.90
33803;DHT22;20110;53.120;5.786;2023-03-01T01:06:27;-5.90;99.90
33803;DHT22;20110;53.120;5.786;2023-03-01T01:08:57;-5.70;99.90
33803;DHT22;20110;53.120;5.786;2023-03-01T01:11:25;-5.50;99.90
33803;DHT22;20110;53.120;5.786;2023-03-01T01:13:52;-5.20;99.90
33803;DHT22;20110;53.120;5.786;2023-03-01T01:16:20;-4.90;99.90
33803;DHT22;20110;53.120;5.786;2023-03-01T01:18:47;-4.80;99.90
33803;DHT22;20110;53.120;5.786;2023-03-01T01:21:16;-5.00;99.90
33803;DHT22;20110;53.120;5.786;2023-03-01T01:23:45;-5.10;99.90
33803;DHT22;20110;53.120;5.786;2023-03-01T01:26:18;-5.10;99.90
33803;DHT22;20110;53.120;5.786;2023-03-01T01:28:49;-4.80;99.90
33803;DHT22;20110;53.120;5.786;2023-03-01T01:31:15;-3.80;99.90
33803;DHT22;20110;53.120;5.786;2023-03-01T01:33:42;-4.10;99.90
33803;DHT22;20110;53.120;5.786;2023-03-01T01:36:09;-4.50;99.90
33803;DHT22;20110;53.120;5.786;2023-03-01T01:38:35;-5.20;99.90
33803;DHT22;20110;53.120;5.786;2023-03-01T01:41:04;-5.60;99.90
33803;DHT22;20110;53.120;5.786;2023-03-01T01:43:42;-5.90;99.90
33803;DHT22;20110;53.120;5.786;2023-03-01T01:46:25;-5.50;99.90
33803;DHT22;20110;53.120;5.786;2023-03-01T01:49:01;-5.40;99.90
33803;DHT22;20110;53.120;5.786;2023-03-01T01:51:40;-5.50;99.90
33803;DHT22;20110;53.120;5.786;2023-03-01T01:54:14;-5.70;99.90
33803;DHT22;20110;53.120;5.786;2023-03-01T01:56:54;-5.80;99.90
33803;DHT22;20110;53.120;5.786;2023-03-01T01:59:24;-5.50;99.90
33803;DHT22;20110;53.120;5.786;2023-03-01T02:01:52;-5.00;99.90
33803;DHT22;20110;53.120;5.786;2023-03-01T02:04:19;-4.80;99.90
33803;DHT22;20110;53.120;5.786;2023-03-01T02:06:51;-4.50;99.90
33803;DHT22;20110;53.120;5.786;2023-03-01T02:09:23;-4.30;99.90
33803;DHT22;20110;53.120;5.786;2023-03-01T02:11:50;-4.30;99.90
33803;DHT22;20110;53.120;5.786;2023-03-01T02:14:17;-4.70;99.90
33803;DHT22;20110;53.120;5.786;2023-03-01T02:16:43;-5.20;99.90
33803;DHT22;20110;53.120;5.786;2023-03-01T02:19:18;-5.40;99.90
33803;DHT22;20110;53.120;5.786;2023-03-01T02:30:31;-5.60;99.90
33803;DHT22;20110;53.120;5.786;2023-03-01T02:33:00;-5.40;99.90
33803;DHT22;20110;53.120;5.786;2023-03-01T02:35:36;-5.40;99.90
33803;DHT22;20110;53.120;5.786;2023-03-01T02:38:06;-5.10;99.90
33803;DHT22;20110;53.120;5.786;2023-03-01T02:40:34;-4.90;99.90
33803;DHT22;20110;53.120;5.786;2023-03-01T02:43:04;-4.90;99.90
33803;DHT22;20110;53.120;5.786;2023-03-01T02:45:34;-4.70;99.90
33803;DHT22;20110;53.120;5.786;2023-03-01T02:48:00;-4.00;99.90
33803;DHT22;20110;53.120;5.786;2023-03-01T02:53:08;-4.10;99.90
33803;DHT22;20110;53.120;5.786;2023-03-01T02:55:38;-4.50;99.90
33803;DHT22;20110;53.120;5.786;2023-03-01T02:58:05;-4.90;99.90
33803;DHT22;20110;53.120;5.786;2023-03-01T03:00:39;-5.20;99.90
33803;DHT22;20110;53.120;5.786;2023-03-01T03:03:13;-5.30;99.90
33803;DHT22;20110;53.120;5.786;2023-03-01T03:05:41;-5.30;99.90
33803;DHT22;20110;53.120;5.786;2023-03-01T03:08:07;-5.10;99.90
33803;DHT22;20110;53.120;5.786;2023-03-01T03:10:36;-5.00;99.90
33803;DHT22;20110;53.120;5.786;2023-03-01T03:13:08;-5.10;99.90
33803;DHT22;20110;53.120;5.786;2023-03-01T03:15:36;-5.10;99.90
33803;DHT22;20110;53.120;5.786;2023-03-01T03:18:07;-4.80;99.90
33803;DHT22;20110;53.120;5.786;2023-03-01T03:20:35;-4.90;99.90
33803;DHT22;20110;53.120;5.786;2023-03-01T03:23:04;-4.80;99.90
33803;DHT22;20110;53.120;5.786;2023-03-01T03:25:30;-4.50;99.90
33803;DHT22;20110;53.120;5.786;2023-03-01T03:27:57;-3.50;99.90
33803;DHT22;20110;53.120;5.786;2023-03-01T03:30:28;-3.60;99.90
33803;DHT22;20110;53.120;5.786;2023-03-01T03:32:57;-3.90;99.90
33803;DHT22;20110;53.120;5.786;2023-03-01T03:35:44;-4.40;99.90
33803;DHT22;20110;53.120;5.786;2023-03-01T03:38:14;-4.80;99.90
33803;DHT22;20110;53.120;5.786;2023-03-01T03:40:51;-5.30;99.90
33803;DHT22;20110;53.120;5.786;2023-03-01T03:43:26;-5.50;99.90
33803;DHT22;20110;53.120;5.786;2023-03-01T03:45:52;-5.60;99.90
33803;DHT22;20110;53.120;5.786;2023-03-01T03:48:19;-5.60;99.90
33803;DHT22;20110;53.120;5.786;2023-03-01T03:50:50;-5.70;99.90
33803;DHT22;20110;53.120;5.786;2023-03-01T03:53:21;-5.60;99.90
33803;DHT22;20110;53.120;5.786;2023-03-01T03:55:49;-5.60;99.90
33803;DHT22;20110;53.120;5.786;2023-03-01T03:58:16;-5.50;99.90
33803;DHT22;20110;53.120;5.786;2023-03-01T04:00:46;-5.40;99.90
33803;DHT22;20110;53.120;5.786;2023-03-01T04:03:14;-5.40;99.90
33803;DHT22;20110;53.120;5.786;2023-03-01T04:05:42;-4.90;99.90
33803;DHT22;20110;53.120;5.786;2023-03-01T04:08:08;-4.50;99.90
33803;DHT22;20110;53.120;5.786;2023-03-01T04:10:40;-4.60;99.90
33803;DHT22;20110;53.120;5.786;2023-03-01T04:13:12;-5.30;99.90
33803;DHT22;20110;53.120;5.786;2023-03-01T04:15:39;-5.60;99.90
33803;DHT22;20110;53.120;5.786;2023-03-01T04:18:06;-5.90;99.90
33803;DHT22;20110;53.120;5.786;2023-03-01T04:20:34;-5.30;99.90
33803;DHT22;20110;53.120;5.786;2023-03-01T04:25:46;-5.60;99.90
33803;DHT22;20110;53.120;5.786;2023-03-01T04:28:19;-5.50;99.90
33803;DHT22;20110;53.120;5.786;2023-03-01T04:31:12;-5.70;99.90
33803;DHT22;20110;53.120;5.786;2023-03-01T04:33:41;-5.80;99.90
33803;DHT22;20110;53.120;5.786;2023-03-01T04:36:09;-5.90;99.90
33803;DHT22;20110;53.120;5.786;2023-03-01T04:38:39;-6.00;99.90
33803;DHT22;20110;53.120;5.786;2023-03-01T04:41:08;-5.90;99.90
33803;DHT22;20110;53.120;5.786;2023-03-01T04:43:35;-5.90;99.90
33803;DHT22;20110;53.120;5.786;2023-03-01T04:46:08;-5.40;99.90
33803;DHT22;20110;53.120;5.786;2023-03-01T04:48:38;-5.10;99.90
33803;DHT22;20110;53.120;5.786;2023-03-01T04:51:05;-5.40;99.90
33803;DHT22;20110;53.120;5.786;2023-03-01T04:53:33;-5.90;99.90
33803;DHT22;20110;53.120;5.786;2023-03-01T04:56:02;-6.40;99.90
33803;DHT22;20110;53.120;5.786;2023-03-01T04:58:28;-6.30;99.90
33803;DHT22;20110;53.120;5.786;2023-03-01T05:00:54;-6.30;99.90
33803;DHT22;20110;53.120;5.786;2023-03-01T05:03:21;-6.50;99.90
33803;DHT22;20110;53.120;5.786;2023-03-01T05:05:49;-6.60;99.90
33803;DHT22;20110;53.120;5.786;2023-03-01T05:08:16;-6.60;99.90
33803;DHT22;20110;53.120;5.786;2023-03-01T05:10:51;-6.70;99.90
33803;DHT22;20110;53.120;5.786;2023-03-01T05:13:20;-6.70;99.90
33803;DHT22;20110;53.120;5.786;2023-03-01T05:15:58;-6.30;99.90
33803;DHT22;20110;53.120;5.786;2023-03-01T05:18:27;-6.20;99.90
33803;DHT22;20110;53.120;5.786;2023-03-01T05:20:56;-6.20;99.90
33803;DHT22;20110;53.120;5.786;2023-03-01T05:23:30;-6.20;99.90
33803;DHT22;20110;53.120;5.786;2023-03-01T05:26:01;-5.80;99.90
33803;DHT22;20110;53.120;5.786;2023-03-01T05:28:29;-5.00;99.90
33803;DHT22;20110;53.120;5.786;2023-03-01T05:30:56;-5.40;99.90
33803;DHT22;20110;53.120;5.786;2023-03-01T05:33:24;-6.00;99.90
33803;DHT22;20110;53.120;5.786;2023-03-01T05:35:52;-6.50;99.90
33803;DHT22;20110;53.120;5.786;2023-03-01T05:38:19;-6.70;99.90
33803;DHT22;20110;53.120;5.786;2023-03-01T05:40:47;-6.90;99.90
33803;DHT22;20110;53.120;5.786;2023-03-01T05:43:15;-7.10;99.90
33803;DHT22;20110;53.120;5.786;2023-03-01T05:45:43;-7.00;99.90
33803;DHT22;20110;53.120;5.786;2023-03-01T05:48:10;-7.00;99.90
33803;DHT22;20110;53.120;5.786;2023-03-01T05:50:41;-7.00;99.90
33803;DHT22;20110;53.120;5.786;2023-03-01T05:55:45;-6.50;99.90
33803;DHT22;20110;53.120;5.786;2023-03-01T05:58:17;-6.70;99.90
33803;DHT22;20110;53.120;5.786;2023-03-01T06:00:45;-6.60;99.90
33803;DHT22;20110;53.120;5.786;2023-03-01T06:03:14;-6.30;99.90
33803;DHT22;20110;53.120;5.786;2023-03-01T06:05:41;-6.00;99.90
33803;DHT22;20110;53.120;5.786;2023-03-01T06:08:09;-5.70;99.90
33803;DHT22;20110;53.120;5.786;2023-03-01T06:10:36;-5.50;99.90
33803;DHT22;20110;53.120;5.786;2023-03-01T06:13:02;-5.80;99.90
33803;DHT22;20110;53.120;5.786;2023-03-01T06:15:28;-6.60;99.90
33803;DHT22;20110;53.120;5.786;2023-03-01T06:17:55;-6.90;99.90
33803;DHT22;20110;53.120;5.786;2023-03-01T06:20:26;-7.10;99.90
33803;DHT22;20110;53.120;5.786;2023-03-01T06:22:53;-7.40;99.90
33803;DHT22;20110;53.120;5.786;2023-03-01T06:25:25;-7.20;99.90
33803;DHT22;20110;53.120;5.786;2023-03-01T06:27:52;-7.00;99.90
33803;DHT22;20110;53.120;5.786;2023-03-01T06:30:19;-6.80;99.90
33803;DHT22;20110;53.120;5.786;2023-03-01T06:32:47;-6.60;99.90
33803;DHT22;20110;53.120;5.786;2023-03-01T06:35:14;-6.70;99.90
33803;DHT22;20110;53.120;5.786;2023-03-01T06:37:44;-6.60;99.90
33803;DHT22;20110;53.120;5.786;2023-03-01T06:40:11;-6.80;99.90
33803;DHT22;20110;53.120;5.786;2023-03-01T06:42:40;-6.80;99.90
33803;DHT22;20110;53.120;5.786;2023-03-01T06:45:08;-6.40;99.90
33803;DHT22;20110;53.120;5.786;2023-03-01T06:47:35;-5.90;99.90
33803;DHT22;20110;53.120;5.786;2023-03-01T06:50:02;-5.50;99.90
33803;DHT22;20110;53.120;5.786;2023-03-01T06:52:28;-6.30;99.90
33803;DHT22;20110;53.120;5.786;2023-03-01T06:54:54;-6.50;99.90
33803;DHT22;20110;53.120;5.786;2023-03-01T06:57:20;-6.90;99.90
33803;DHT22;20110;53.120;5.786;2023-03-01T06:59:47;-7.00;99.90
33803;DHT22;20110;53.120;5.786;2023-03-01T07:02:14;-6.80;99.90
33803;DHT22;20110;53.120;5.786;2023-03-01T07:04:40;-6.70;99.90
33803;DHT22;20110;53.120;5.786;2023-03-01T07:07:07;-6.40;99.90
33803;DHT22;20110;53.120;5.786;2023-03-01T07:09:34;-6.00;99.90
33803;DHT22;20110;53.120;5.786;2023-03-01T07:12:00;-5.80;99.90
33803;DHT22;20110;53.120;5.786;2023-03-01T07:14:26;-5.70;99.90
33803;DHT22;20110;53.120;5.786;2023-03-01T07:16:53;-5.50;99.90
33803;DHT22;20110;53.120;5.786;2023-03-01T07:19:20;-5.60;99.90
33803;DHT22;20110;53.120;5.786;2023-03-01T07:21:47;-5.60;99.90
33803;DHT22;20110;53.120;5.786;2023-03-01T07:24:12;-5.40;99.90
33803;DHT22;20110;53.120;5.786;2023-03-01T07:26:38;-5.20;99.90
33803;DHT22;20110;53.120;5.786;2023-03-01T07:29:06;-4.90;99.90
33803;DHT22;20110;53.120;5.786;2023-03-01T07:31:33;-4.70;99.90
33803;DHT22;20110;53.120;5.786;2023-03-01T07:33:59;-4.80;99.90
33803;DHT22;20110;53.120;5.786;2023-03-01T07:36:25;-4.90;99.90
33803;DHT22;20110;53.120;5.786;2023-03-01T07:38:52;-4.60;99.90
33803;DHT22;20110;53.120;5.786;2023-03-01T07:41:17;-4.40;99.90
33803;DHT22;20110;53.120;5.786;2023-03-01T07:43:43;-4.20;99.90
33803;DHT22;20110;53.120;5.786;2023-03-01T07:46:10;-4.10;99.90
33803;DHT22;20110;53.120;5.786;2023-03-01T07:48:36;-4.00;99.90
33803;DHT22;20110;53.120;5.786;2023-03-01T07:51:03;-3.90;99.90
33803;DHT22;20110;53.120;5.786;2023-03-01T07:53:31;-3.70;99.90
33803;DHT22;20110;53.120;5.786;2023-03-01T07:56:11;-3.60;99.90
33803;DHT22;20110;53.120;5.786;2023-03-01T07:58:40;-3.50;99.90
33803;DHT22;20110;53.120;5.786;2023-03-01T08:01:09;-3.50;99.90
33803;DHT22;20110;53.120;5.786;2023-03-01T08:03:37;-3.40;99.90
33803;DHT22;20110;53.120;5.786;2023-03-01T08:06:05;-3.30;99.90
33803;DHT22;20110;53.120;5.786;2023-03-01T08:08:32;-3.20;99.90
33803;DHT22;20110;53.120;5.786;2023-03-01T08:11:00;-3.10;99.90
33803;DHT22;20110;53.120;5.786;2023-03-01T08:13:29;-3.10;99.90
33803;DHT22;20110;53.120;5.786;2023-03-01T08:16:08;-2.90;99.90
33803;DHT22;20110;53.120;5.786;2023-03-01T08:18:41;-2.90;99.90
33803;DHT22;20110;53.120;5.786;2023-03-01T08:21:10;-2.90;99.90
33803;DHT22;20110;53.120;5.786;2023-03-01T08:23:38;-2.80;99.90
33803;DHT22;20110;53.120;5.786;2023-03-01T08:26:19;-2.80;99.90
33803;DHT22;20110;53.120;5.786;2023-03-01T08:28:46;-2.70;99.90
33803;DHT22;20110;53.120;5.786;2023-03-01T08:31:21;-2.60;99.90
33803;DHT22;20110;53.120;5.786;2023-03-01T08:33:51;-2.60;99.90
33803;DHT22;20110;53.120;5.786;2023-03-01T08:36:32;-2.50;99.90
33803;DHT22;20110;53.120;5.786;2023-03-01T08:39:02;-2.40;99.90
33803;DHT22;20110;53.120;5.786;2023-03-01T08:41:29;-2.30;99.90
33803;DHT22;20110;53.120;5.786;2023-03-01T08:43:55;-2.30;99.90
33803;DHT22;20110;53.120;5.786;2023-03-01T08:46:29;-2.20;99.90
33803;DHT22;20110;53.120;5.786;2023-03-01T08:48:57;-2.10;99.90
33803;DHT22;20110;53.120;5.786;2023-03-01T08:51:24;-2.10;99.90
33803;DHT22;20110;53.120;5.786;2023-03-01T08:53:51;-2.00;99.90
33803;DHT22;20110;53.120;5.786;2023-03-01T08:56:18;-1.90;99.90
33803;DHT22;20110;53.120;5.786;2023-03-01T08:58:46;-1.80;99.90
33803;DHT22;20110;53.120;5.786;2023-03-01T09:01:16;-1.70;99.90
33803;DHT22;20110;53.120;5.786;2023-03-01T09:03:44;-1.60;99.90
33803;DHT22;20110;53.120;5.786;2023-03-01T09:06:11;-1.60;99.90
33803;DHT22;20110;53.120;5.786;2023-03-01T09:08:40;-1.40;99.90
33803;DHT22;20110;53.120;5.786;2023-03-01T09:11:12;-1.40;99.90
33803;DHT22;20110;53.120;5.786;2023-03-01T09:13:40;-1.30;99.90
33803;DHT22;20110;53.120;5.786;2023-03-01T09:16:07;-1.20;99.90
33803;DHT22;20110;53.120;5.786;2023-03-01T09:18:34;-1.10;99.90
33803;DHT22;20110;53.120;5.786;2023-03-01T09:21:13;-1.00;99.90
33803;DHT22;20110;53.120;5.786;2023-03-01T09:23:45;-0.80;99.90
33803;DHT22;20110;53.120;5.786;2023-03-01T09:26:15;-0.80;99.90
33803;DHT22;20110;53.120;5.786;2023-03-01T09:28:45;-0.70;99.90
33803;DHT22;20110;53.120;5.786;2023-03-01T09:31:12;-0.60;99.90
33803;DHT22;20110;53.120;5.786;2023-03-01T09:33:40;-0.60;99.90
33803;DHT22;20110;53.120;5.786;2023-03-01T09:36:11;-0.50;99.90
33803;DHT22;20110;53.120;5.786;2023-03-01T09:38:38;-0.40;99.90
33803;DHT22;20110;53.120;5.786;2023-03-01T09:41:35;-0.20;99.90
33803;DHT22;20110;53.120;5.786;2023-03-01T09:44:29;0.00;99.90
33803;DHT22;20110;53.120;5.786;2023-03-01T09:47:02;0.60;99.90
33803;DHT22;20110;53.120;5.786;2023-03-01T09:49:31;1.40;99.90
33803;DHT22;20110;53.120;5.786;2023-03-01T09:52:17;2.00;99.90
33803;DHT22;20110;53.120;5.786;2023-03-01T09:54:56;2.60;99.90
33803;DHT22;20110;53.120;5.786;2023-03-01T10:03:00;3.40;99.90
33803;DHT22;20110;53.120;5.786;2023-03-01T10:11:25;4.20;99.90
33803;DHT22;20110;53.120;5.786;2023-03-01T10:14:00;4.50;99.90
33803;DHT22;20110;53.120;5.786;2023-03-01T10:22:20;5.10;99.90
33803;DHT22;20110;53.120;5.786;2023-03-01T10:24:56;5.20;99.90
33803;DHT22;20110;53.120;5.786;2023-03-01T10:27:52;5.40;99.90
33803;DHT22;20110;53.120;5.786;2023-03-01T10:30:39;5.60;99.90
33803;DHT22;20110;53.120;5.786;2023-03-01T10:33:35;5.80;99.90
33803;DHT22;20110;53.120;5.786;2023-03-01T10:36:05;6.00;99.90
33803;DHT22;20110;53.120;5.786;2023-03-01T10:38:48;6.30;99.90
33803;DHT22;20110;53.120;5.786;2023-03-01T10:41:14;6.50;99.90
33803;DHT22;20110;53.120;5.786;2023-03-01T10:43:52;6.50;99.90
33803;DHT22;20110;53.120;5.786;2023-03-01T10:46:30;6.70;99.90
33803;DHT22;20110;53.120;5.786;2023-03-01T10:49:21;6.90;99.90
33803;DHT22;20110;53.120;5.786;2023-03-01T10:51:50;7.20;99.90
33803;DHT22;20110;53.120;5.786;2023-03-01T10:57:04;7.50;99.90
33803;DHT22;20110;53.120;5.786;2023-03-01T10:59:36;7.60;99.90
33803;DHT22;20110;53.120;5.786;2023-03-01T11:04:35;8.20;99.90
33803;DHT22;20110;53.120;5.786;2023-03-01T11:07:02;8.00;99.90
33803;DHT22;20110;53.120;5.786;2023-03-01T11:09:32;8.40;99.90
33803;DHT22;20110;53.120;5.786;2023-03-01T11:12:05;8.60;99.90
33803;DHT22;20110;53.120;5.786;2023-03-01T11:14:50;8.60;99.90
33803;DHT22;20110;53.120;5.786;2023-03-01T11:17:29;8.60;99.40
33803;DHT22;20110;53.120;5.786;2023-03-01T11:25:26;8.50;98.80
33803;DHT22;20110;53.120;5.786;2023-03-01T11:27:59;8.60;98.50
33803;DHT22;20110;53.120;5.786;2023-03-01T11:36:24;8.90;97.30
33803;DHT22;20110;53.120;5.786;2023-03-01T11:38:57;8.80;97.40
33803;DHT22;20110;53.120;5.786;2023-03-01T11:41:33;9.00;96.10
33803;DHT22;20110;53.120;5.786;2023-03-01T11:44:08;9.20;95.10
33803;DHT22;20110;53.120;5.786;2023-03-01T11:47:13;9.30;92.50
33803;DHT22;20110;53.120;5.786;2023-03-01T11:50:29;9.40;92.20
33803;DHT22;20110;53.120;5.786;2023-03-01T11:56:09;9.60;90.80
33803;DHT22;20110;53.120;5.786;2023-03-01T12:02:37;9.60;90.80
33803;DHT22;20110;53.120;5.786;2023-03-01T12:05:24;9.70;90.50
33803;DHT22;20110;53.120;5.786;2023-03-01T12:11:06;9.80;88.40
33803;DHT22;20110;53.120;5.786;2023-03-01T12:20:41;9.80;84.40
33803;DHT22;20110;53.120;5.786;2023-03-01T12:26:35;10.00;83.80
33803;DHT22;20110;53.120;5.786;2023-03-01T12:29:31;9.80;82.50
33803;DHT22;20110;53.120;5.786;2023-03-01T12:32:25;9.80;81.80
33803;DHT22;20110;53.120;5.786;2023-03-01T12:38:50;9.70;81.80
33803;DHT22;20110;53.120;5.786;2023-03-01T12:49:41;9.40;79.60
33803;DHT22;20110;53.120;5.786;2023-03-01T12:55:01;9.40;82.40
33803;DHT22;20110;53.120;5.786;2023-03-01T13:01:35;9.40;78.80
33803;DHT22;20110;53.120;5.786;2023-03-01T13:26:11;9.20;79.40
33803;DHT22;20110;53.120;5.786;2023-03-01T13:33:42;9.30;79.60
33803;DHT22;20110;53.120;5.786;2023-03-01T13:36:11;9.30;79.80
33803;DHT22;20110;53.120;5.786;2023-03-01T13:41:58;9.20;80.90
33803;DHT22;20110;53.120;5.786;2023-03-01T13:44:36;9.00;81.60
33803;DHT22;20110;53.120;5.786;2023-03-01T13:47:16;8.80;80.10
33803;DHT22;20110;53.120;5.786;2023-03-01T13:52:38;8.80;82.00
33803;DHT22;20110;53.120;5.786;2023-03-01T13:57:39;8.60;83.00
33803;DHT22;20110;53.120;5.786;2023-03-01T14:00:36;8.50;82.80
33803;DHT22;20110;53.120;5.786;2023-03-01T14:03:12;8.50;80.40
33803;DHT22;20110;53.120;5.786;2023-03-01T14:05:43;8.40;82.00
33803;DHT22;20110;53.120;5.786;2023-03-01T14:08:32;8.40;83.70
33803;DHT22;20110;53.120;5.786;2023-03-01T14:11:33;8.50;85.00
33803;DHT22;20110;53.120;5.786;2023-03-01T14:20:16;8.20;86.30
33803;DHT22;20110;53.120;5.786;2023-03-01T14:22:45;8.20;84.90
33803;DHT22;20110;53.120;5.786;2023-03-01T14:25:25;8.10;86.00
33803;DHT22;20110;53.120;5.786;2023-03-01T14:30:51;8.00;83.30
33803;DHT22;20110;53.120;5.786;2023-03-01T14:33:32;7.90;85.60
33803;DHT22;20110;53.120;5.786;2023-03-01T14:36:06;7.80;84.70
33803;DHT22;20110;53.120;5.786;2023-03-01T14:38:44;7.70;87.90
33803;DHT22;20110;53.120;5.786;2023-03-01T14:41:23;7.60;87.70
33803;DHT22;20110;53.120;5.786;2023-03-01T14:43:55;7.40;86.60
33803;DHT22;20110;53.120;5.786;2023-03-01T14:49:03;7.40;88.00
33803;DHT22;20110;53.120;5.786;2023-03-01T14:51:38;7.30;87.80
33803;DHT22;20110;53.120;5.786;2023-03-01T14:56:53;7.20;90.90
33803;DHT22;20110;53.120;5.786;2023-03-01T14:59:23;7.10;88.90
33803;DHT22;20110;53.120;5.786;2023-03-01T15:01:51;7.00;89.40
33803;DHT22;20110;53.120;5.786;2023-03-01T15:04:21;7.00;90.30
33803;DHT22;20110;53.120;5.786;2023-03-01T15:06:52;7.00;90.50
33803;DHT22;20110;53.120;5.786;2023-03-01T15:09:19;7.00;90.00
33803;DHT22;20110;53.120;5.786;2023-03-01T15:11:46;7.00;89.00
33803;DHT22;20110;53.120;5.786;2023-03-01T15:14:43;7.00;90.40
33803;DHT22;20110;53.120;5.786;2023-03-01T15:17:33;6.90;91.90
33803;DHT22;20110;53.120;5.786;2023-03-01T15:20:03;6.90;92.30
33803;DHT22;20110;53.120;5.786;2023-03-01T15:22:31;6.80;92.20
33803;DHT22;20110;53.120;5.786;2023-03-01T15:24:57;6.70;92.30
33803;DHT22;20110;53.120;5.786;2023-03-01T15:27:25;6.70;92.60
33803;DHT22;20110;53.120;5.786;2023-03-01T15:29:57;6.70;92.70
33803;DHT22;20110;53.120;5.786;2023-03-01T15:32:35;6.60;93.40
33803;DHT22;20110;53.120;5.786;2023-03-01T15:35:42;6.50;94.30
33803;DHT22;20110;53.120;5.786;2023-03-01T15:41:30;6.40;93.60
33803;DHT22;20110;53.120;5.786;2023-03-01T15:43:59;6.30;94.30
33803;DHT22;20110;53.120;5.786;2023-03-01T15:46:39;6.20;94.80
33803;DHT22;20110;53.120;5.786;2023-03-01T15:49:26;6.20;95.50
33803;DHT22;20110;53.120;5.786;2023-03-01T15:52:25;6.10;95.30
33803;DHT22;20110;53.120;5.786;2023-03-01T15:55:01;6.00;95.20
33803;DHT22;20110;53.120;5.786;2023-03-01T15:57:29;5.90;95.70
33803;DHT22;20110;53.120;5.786;2023-03-01T15:59:55;5.90;96.10
33803;DHT22;20110;53.120;5.786;2023-03-01T16:02:23;5.80;96.50
33803;DHT22;20110;53.120;5.786;2023-03-01T16:04:50;5.70;97.10
33803;DHT22;20110;53.120;5.786;2023-03-01T16:07:16;5.70;97.80
33803;DHT22;20110;53.120;5.786;2023-03-01T16:09:42;5.50;98.50
33803;DHT22;20110;53.120;5.786;2023-03-01T16:12:16;5.50;99.00
33803;DHT22;20110;53.120;5.786;2023-03-01T16:14:42;5.40;99.60
33803;DHT22;20110;53.120;5.786;2023-03-01T16:17:08;5.40;99.90
33803;DHT22;20110;53.120;5.786;2023-03-01T16:19:36;5.30;99.90
33803;DHT22;20110;53.120;5.786;2023-03-01T16:22:05;5.20;99.90
33803;DHT22;20110;53.120;5.786;2023-03-01T16:24:31;5.10;99.90
33803;DHT22;20110;53.120;5.786;2023-03-01T16:26:57;5.00;99.90
33803;DHT22;20110;53.120;5.786;2023-03-01T16:29:24;4.90;99.90
33803;DHT22;20110;53.120;5.786;2023-03-01T16:31:50;4.80;99.90
33803;DHT22;20110;53.120;5.786;2023-03-01T16:34:16;4.70;99.90
33803;DHT22;20110;53.120;5.786;2023-03-01T16:36:42;4.60;99.90
33803;DHT22;20110;53.120;5.786;2023-03-01T16:39:09;4.50;99.90
33803;DHT22;20110;53.120;5.786;2023-03-01T16:41:35;4.40;99.90
33803;DHT22;20110;53.120;5.786;2023-03-01T16:44:00;4.30;99.90
33803;DHT22;20110;53.120;5.786;2023-03-01T16:46:28;4.20;99.90
33803;DHT22;20110;53.120;5.786;2023-03-01T16:48:55;4.10;99.90
33803;DHT22;20110;53.120;5.786;2023-03-01T16:51:22;3.90;99.90
33803;DHT22;20110;53.120;5.786;2023-03-01T16:53:49;3.80;99.90
33803;DHT22;20110;53.120;5.786;2023-03-01T16:56:16;3.60;99.90
33803;DHT22;20110;53.120;5.786;2023-03-01T16:58:43;3.50;99.90
33803;DHT22;20110;53.120;5.786;2023-03-01T17:01:15;3.30;99.90
33803;DHT22;20110;53.120;5.786;2023-03-01T17:03:43;3.20;99.90
33803;DHT22;20110;53.120;5.786;2023-03-01T17:06:14;3.10;99.90
33803;DHT22;20110;53.120;5.786;2023-03-01T17:08:42;2.90;99.90
33803;DHT22;20110;53.120;5.786;2023-03-01T17:11:10;2.70;99.90
33803;DHT22;20110;53.120;5.786;2023-03-01T17:13:42;2.60;99.90
33803;DHT22;20110;53.120;5.786;2023-03-01T17:16:11;2.50;99.90
33803;DHT22;20110;53.120;5.786;2023-03-01T17:18:39;2.40;99.90
33803;DHT22;20110;53.120;5.786;2023-03-01T17:21:07;2.40;99.90
33803;DHT22;20110;53.120;5.786;2023-03-01T17:23:34;2.20;99.90
33803;DHT22;20110;53.120;5.786;2023-03-01T17:26:02;2.00;99.90
33803;DHT22;20110;53.120;5.786;2023-03-01T17:28:30;1.90;99.90
33803;DHT22;20110;53.120;5.786;2023-03-01T17:30:59;1.80;99.90
33803;DHT22;20110;53.120;5.786;2023-03-01T17:33:26;1.70;99.90
33803;DHT22;20110;53.120;5.786;2023-03-01T17:35:55;1.70;99.90
33803;DHT22;20110;53.120;5.786;2023-03-01T17:38:22;1.80;99.90
33803;DHT22;20110;53.120;5.786;2023-03-01T17:40:48;1.80;99.90
33803;DHT22;20110;53.120;5.786;2023-03-01T17:43:15;1.80;99.90
33803;DHT22;20110;53.120;5.786;2023-03-01T17:45:43;1.80;99.90
33803;DHT22;20110;53.120;5.786;2023-03-01T17:48:13;1.60;99.90
33803;DHT22;20110;53.120;5.786;2023-03-01T17:50:40;1.70;99.90
33803;DHT22;20110;53.120;5.786;2023-03-01T17:53:07;1.70;99.90
33803;DHT22;20110;53.120;5.786;2023-03-01T17:55:39;1.80;99.90
33803;DHT22;20110;53.120;5.786;2023-03-01T17:58:07;1.70;99.90
33803;DHT22;20110;53.120;5.786;2023-03-01T18:00:34;1.70;99.90
33803;DHT22;20110;53.120;5.786;2023-03-01T18:03:00;1.70;99.90
33803;DHT22;20110;53.120;5.786;2023-03-01T18:05:31;1.70;99.90
33803;DHT22;20110;53.120;5.786;2023-03-01T18:07:58;1.60;99.90
33803;DHT22;20110;53.120;5.786;2023-03-01T18:10:25;1.60;99.90
33803;DHT22;20110;53.120;5.786;2023-03-01T18:12:52;1.50;99.90
33803;DHT22;20110;53.120;5.786;2023-03-01T18:15:17;1.50;99.90
33803;DHT22;20110;53.120;5.786;2023-03-01T18:17:43;1.40;99.90
33803;DHT22;20110;53.120;5.786;2023-03-01T18:20:10;1.40;99.90
33803;DHT22;20110;53.120;5.786;2023-03-01T18:22:38;1.30;99.90
33803;DHT22;20110;53.120;5.786;2023-03-01T18:25:04;1.20;99.90